sensor_id;sensor_type;location;lat;lon;timestamp;temperature;humidity
55213;DHT22;41083;52.932;6.674;2022-09-01T00:01:16;15.40;92.90
55213;DHT22;41083;52.932;6.674;2022-09-01T00:03:49;15.40;93.20
55213;DHT22;41083;52.932;6.674;2022-09-01T00:06:23;15.40;92.90
55213;DHT22;41083;52.932;6.674;2022-09-01T00:08:54;15.30;93.00
55213;DHT22;41083;52.932;6.674;2022-09-01T00:11:22;15.30;92.90
55213;DHT22;41083;52.932;6.674;2022-09-01T00:13:49;15.30;92.80
55213;DHT22;41083;52.932;6.674;2022-09-01T00:16:15;15.30;93.00
55213;DHT22;41083;52.932;6.674;2022-09-01T00:18:48;15.30;92.90
55213;DHT22;41083;52.932;6.674;2022-09-01T00:21:18;15.30;92.90
55213;DHT22;41083;52.932;6.674;2022-09-01T00:23:44;15.20;92.80
55213;DHT22;41083;52.932;6.674;2022-09-01T00:26:10;15.20;92.80
55213;DHT22;41083;52.932;6.674;2022-09-01T00:28:37;15.20;92.80
55213;DHT22;41083;52.932;6.674;2022-09-01T00:31:04;15.20;92.80
55213;DHT22;41083;52.932;6.674;2022-09-01T00:33:31;15.20;92.70
55213;DHT22;41083;52.932;6.674;2022-09-01T00:35:57;15.20;92.70
55213;DHT22;41083;52.932;6.674;2022-09-01T00:38:23;15.20;92.60
55213;DHT22;41083;52.932;6.674;2022-09-01T00:40:49;15.20;92.70
55213;DHT22;41083;52.932;6.674;2022-09-01T00:45:47;15.10;92.70
55213;DHT22;41083;52.932;6.674;2022-09-01T00:48:17;15.10;92.60
55213;DHT22;41083;52.932;6.674;2022-09-01T00:50:45;15.10;92.70
55213;DHT22;41083;52.932;6.674;2022-09-01T00:53:11;15.10;92.70
55213;DHT22;41083;52.932;6.674;2022-09-01T00:55:37;15.00;92.70
55213;DHT22;41083;52.932;6.674;2022-09-01T00:58:04;15.00;92.60
55213;DHT22;41083;52.932;6.674;2022-09-01T01:00:32;15.00;92.60
55213;DHT22;41083;52.932;6.674;2022-09-01T01:03:07;15.00;92.70
55213;DHT22;41083;52.932;6.674;2022-09-01T01:05:36;14.90;92.70
55213;DHT22;41083;52.932;6.674;2022-09-01T01:08:05;14.90;92.70
55213;DHT22;41083;52.932;6.674;2022-09-01T01:10:35;14.90;92.70
55213;DHT22;41083;52.932;6.674;2022-09-01T01:13:06;14.90;93.00
55213;DHT22;41083;52.932;6.674;2022-09-01T01:15:33;14.90;92.80
55213;DHT22;41083;52.932;6.674;2022-09-01T01:17:59;14.90;92.80
55213;DHT22;41083;52.932;6.674;2022-09-01T01:20:26;14.80;92.70
55213;DHT22;41083;52.932;6.674;2022-09-01T01:23:20;14.90;92.80
55213;DHT22;41083;52.932;6.674;2022-09-01T01:25:57;14.80;92.80
55213;DHT22;41083;52.932;6.674;2022-09-01T01:28:29;14.80;93.10
55213;DHT22;41083;52.932;6.674;2022-09-01T01:33:49;14.70;93.00
55213;DHT22;41083;52.932;6.674;2022-09-01T01:36:30;14.60;93.10
55213;DHT22;41083;52.932;6.674;2022-09-01T01:39:04;14.60;93.10
55213;DHT22;41083;52.932;6.674;2022-09-01T01:41:31;14.60;93.10
55213;DHT22;41083;52.932;6.674;2022-09-01T01:43:59;14.60;93.00
55213;DHT22;41083;52.932;6.674;2022-09-01T01:46:26;14.60;93.00
55213;DHT22;41083;52.932;6.674;2022-09-01T01:48:51;14.60;93.10
55213;DHT22;41083;52.932;6.674;2022-09-01T01:51:20;14.60;93.10
55213;DHT22;41083;52.932;6.674;2022-09-01T01:53:49;14.50;93.10
55213;DHT22;41083;52.932;6.674;2022-09-01T01:56:20;14.50;93.10
55213;DHT22;41083;52.932;6.674;2022-09-01T01:58:51;14.40;93.20
55213;DHT22;41083;52.932;6.674;2022-09-01T02:01:22;14.40;93.20
55213;DHT22;41083;52.932;6.674;2022-09-01T02:03:50;14.40;93.20
55213;DHT22;41083;52.932;6.674;2022-09-01T02:06:20;14.40;93.20
55213;DHT22;41083;52.932;6.674;2022-09-01T02:08:52;14.40;93.20
55213;DHT22;41083;52.932;6.674;2022-09-01T02:11:21;14.40;93.30
55213;DHT22;41083;52.932;6.674;2022-09-01T02:13:47;14.30;93.30
55213;DHT22;41083;52.932;6.674;2022-09-01T02:16:14;14.30;93.40
55213;DHT22;41083;52.932;6.674;2022-09-01T02:18:43;14.30;93.30
55213;DHT22;41083;52.932;6.674;2022-09-01T02:21:14;14.30;93.30
55213;DHT22;41083;52.932;6.674;2022-09-01T02:23:48;14.30;93.40
55213;DHT22;41083;52.932;6.674;2022-09-01T02:26:15;14.30;93.40
55213;DHT22;41083;52.932;6.674;2022-09-01T02:28:45;14.20;93.40
55213;DHT22;41083;52.932;6.674;2022-09-01T02:31:13;14.20;93.50
55213;DHT22;41083;52.932;6.674;2022-09-01T02:33:40;14.20;93.50
55213;DHT22;41083;52.932;6.674;2022-09-01T02:36:12;14.20;93.50
55213;DHT22;41083;52.932;6.674;2022-09-01T02:38:39;14.20;93.50
55213;DHT22;41083;52.932;6.674;2022-09-01T02:41:06;14.10;93.60
55213;DHT22;41083;52.932;6.674;2022-09-01T02:43:32;14.10;93.50
55213;DHT22;41083;52.932;6.674;2022-09-01T02:45:59;14.10;93.50
55213;DHT22;41083;52.932;6.674;2022-09-01T02:48:28;14.10;93.50
55213;DHT22;41083;52.932;6.674;2022-09-01T02:50:58;14.20;93.50
55213;DHT22;41083;52.932;6.674;2022-09-01T02:53:30;14.20;93.50
55213;DHT22;41083;52.932;6.674;2022-09-01T02:55:56;14.20;93.40
55213;DHT22;41083;52.932;6.674;2022-09-01T02:58:29;14.10;93.40
55213;DHT22;41083;52.932;6.674;2022-09-01T03:01:12;14.10;93.40
55213;DHT22;41083;52.932;6.674;2022-09-01T03:03:38;14.10;93.50
55213;DHT22;41083;52.932;6.674;2022-09-01T03:06:04;14.10;93.50
55213;DHT22;41083;52.932;6.674;2022-09-01T03:08:37;14.10;93.50
55213;DHT22;41083;52.932;6.674;2022-09-01T03:11:05;14.10;93.50
55213;DHT22;41083;52.932;6.674;2022-09-01T03:13:32;14.00;93.40
55213;DHT22;41083;52.932;6.674;2022-09-01T03:15:58;14.00;93.50
55213;DHT22;41083;52.932;6.674;2022-09-01T03:18:24;14.00;93.50
55213;DHT22;41083;52.932;6.674;2022-09-01T03:20:49;14.00;93.50
55213;DHT22;41083;52.932;6.674;2022-09-01T03:23:16;14.00;93.50
55213;DHT22;41083;52.932;6.674;2022-09-01T03:25:44;14.00;93.60
55213;DHT22;41083;52.932;6.674;2022-09-01T03:28:10;14.00;93.50
55213;DHT22;41083;52.932;6.674;2022-09-01T03:30:40;14.00;93.50
55213;DHT22;41083;52.932;6.674;2022-09-01T03:33:08;14.00;93.70
55213;DHT22;41083;52.932;6.674;2022-09-01T03:35:34;13.90;93.60
55213;DHT22;41083;52.932;6.674;2022-09-01T03:38:01;13.90;93.70
55213;DHT22;41083;52.932;6.674;2022-09-01T03:40:31;13.80;93.70
55213;DHT22;41083;52.932;6.674;2022-09-01T03:42:58;13.80;93.80
55213;DHT22;41083;52.932;6.674;2022-09-01T03:45:24;13.80;93.80
55213;DHT22;41083;52.932;6.674;2022-09-01T03:47:51;13.80;93.80
55213;DHT22;41083;52.932;6.674;2022-09-01T03:50:20;13.80;93.80
55213;DHT22;41083;52.932;6.674;2022-09-01T03:52:47;13.80;93.80
55213;DHT22;41083;52.932;6.674;2022-09-01T03:55:17;13.80;93.90
55213;DHT22;41083;52.932;6.674;2022-09-01T03:57:56;13.80;93.90
55213;DHT22;41083;52.932;6.674;2022-09-01T04:00:24;13.80;93.90
55213;DHT22;41083;52.932;6.674;2022-09-01T04:02:52;13.80;93.90
55213;DHT22;41083;52.932;6.674;2022-09-01T04:05:21;13.80;93.90
55213;DHT22;41083;52.932;6.674;2022-09-01T04:07:49;13.80;93.90
55213;DHT22;41083;52.932;6.674;2022-09-01T04:10:16;13.80;94.00
55213;DHT22;41083;52.932;6.674;2022-09-01T04:12:43;13.70;94.00
55213;DHT22;41083;52.932;6.674;2022-09-01T04:15:11;13.70;94.00
55213;DHT22;41083;52.932;6.674;2022-09-01T04:17:37;13.70;93.90
55213;DHT22;41083;52.932;6.674;2022-09-01T04:20:21;13.70;94.00
55213;DHT22;41083;52.932;6.674;2022-09-01T04:22:48;13.80;94.10
55213;DHT22;41083;52.932;6.674;2022-09-01T04:25:15;13.70;94.00
55213;DHT22;41083;52.932;6.674;2022-09-01T04:27:41;13.80;94.10
55213;DHT22;41083;52.932;6.674;2022-09-01T04:30:11;13.80;94.10
55213;DHT22;41083;52.932;6.674;2022-09-01T04:32:37;13.80;94.20
55213;DHT22;41083;52.932;6.674;2022-09-01T04:35:04;13.80;94.10
55213;DHT22;41083;52.932;6.674;2022-09-01T04:37:29;13.80;94.10
55213;DHT22;41083;52.932;6.674;2022-09-01T04:39:56;13.80;94.10
55213;DHT22;41083;52.932;6.674;2022-09-01T04:42:24;13.80;94.10
55213;DHT22;41083;52.932;6.674;2022-09-01T04:44:52;13.80;94.10
55213;DHT22;41083;52.932;6.674;2022-09-01T04:47:19;13.80;94.10
55213;DHT22;41083;52.932;6.674;2022-09-01T04:49:54;13.80;94.20
55213;DHT22;41083;52.932;6.674;2022-09-01T04:52:22;13.90;94.30
55213;DHT22;41083;52.932;6.674;2022-09-01T04:54:48;13.80;94.10
55213;DHT22;41083;52.932;6.674;2022-09-01T04:57:13;13.90;94.20
55213;DHT22;41083;52.932;6.674;2022-09-01T04:59:41;13.80;94.10
55213;DHT22;41083;52.932;6.674;2022-09-01T05:02:08;13.90;94.30
55213;DHT22;41083;52.932;6.674;2022-09-01T05:04:34;13.90;94.20
55213;DHT22;41083;52.932;6.674;2022-09-01T05:07:00;13.90;94.30
55213;DHT22;41083;52.932;6.674;2022-09-01T05:09:28;13.90;94.40
55213;DHT22;41083;52.932;6.674;2022-09-01T05:11:54;13.90;94.40
55213;DHT22;41083;52.932;6.674;2022-09-01T05:14:22;13.90;94.40
55213;DHT22;41083;52.932;6.674;2022-09-01T05:16:49;13.90;94.40
55213;DHT22;41083;52.932;6.674;2022-09-01T05:19:16;13.90;94.40
55213;DHT22;41083;52.932;6.674;2022-09-01T05:21:43;13.90;94.40
55213;DHT22;41083;52.932;6.674;2022-09-01T05:24:14;13.90;94.50
55213;DHT22;41083;52.932;6.674;2022-09-01T05:26:41;13.90;94.50
55213;DHT22;41083;52.932;6.674;2022-09-01T05:29:09;13.90;94.40
55213;DHT22;41083;52.932;6.674;2022-09-01T05:31:43;14.00;94.50
55213;DHT22;41083;52.932;6.674;2022-09-01T05:34:10;14.00;94.50
55213;DHT22;41083;52.932;6.674;2022-09-01T05:36:41;13.90;94.50
55213;DHT22;41083;52.932;6.674;2022-09-01T05:39:07;13.90;94.50
55213;DHT22;41083;52.932;6.674;2022-09-01T05:41:35;14.00;94.50
55213;DHT22;41083;52.932;6.674;2022-09-01T05:44:03;13.90;94.50
55213;DHT22;41083;52.932;6.674;2022-09-01T05:46:33;14.00;94.60
55213;DHT22;41083;52.932;6.674;2022-09-01T05:49:00;14.00;94.50
55213;DHT22;41083;52.932;6.674;2022-09-01T05:51:28;14.00;94.70
55213;DHT22;41083;52.932;6.674;2022-09-01T05:53:56;14.00;94.60
55213;DHT22;41083;52.932;6.674;2022-09-01T05:56:28;14.00;94.50
55213;DHT22;41083;52.932;6.674;2022-09-01T05:58:53;14.00;94.50
55213;DHT22;41083;52.932;6.674;2022-09-01T06:01:25;14.00;94.60
55213;DHT22;41083;52.932;6.674;2022-09-01T06:03:53;14.00;94.60
55213;DHT22;41083;52.932;6.674;2022-09-01T06:06:24;14.00;94.60
55213;DHT22;41083;52.932;6.674;2022-09-01T06:08:50;14.10;94.70
55213;DHT22;41083;52.932;6.674;2022-09-01T06:11:19;14.00;94.60
55213;DHT22;41083;52.932;6.674;2022-09-01T06:13:45;14.10;94.60
55213;DHT22;41083;52.932;6.674;2022-09-01T06:16:13;14.10;94.60
55213;DHT22;41083;52.932;6.674;2022-09-01T06:18:38;14.10;94.70
55213;DHT22;41083;52.932;6.674;2022-09-01T06:21:05;14.10;94.60
55213;DHT22;41083;52.932;6.674;2022-09-01T06:23:33;14.10;94.70
55213;DHT22;41083;52.932;6.674;2022-09-01T06:25:59;14.20;94.70
55213;DHT22;41083;52.932;6.674;2022-09-01T06:28:25;14.20;94.70
55213;DHT22;41083;52.932;6.674;2022-09-01T06:30:50;14.20;94.70
55213;DHT22;41083;52.932;6.674;2022-09-01T06:33:16;14.20;94.70
55213;DHT22;41083;52.932;6.674;2022-09-01T06:35:43;14.30;94.70
55213;DHT22;41083;52.932;6.674;2022-09-01T06:38:11;14.40;94.70
55213;DHT22;41083;52.932;6.674;2022-09-01T06:40:38;14.40;94.80
55213;DHT22;41083;52.932;6.674;2022-09-01T06:43:07;14.40;94.80
55213;DHT22;41083;52.932;6.674;2022-09-01T06:45:39;14.40;94.70
55213;DHT22;41083;52.932;6.674;2022-09-01T06:48:05;14.50;94.80
55213;DHT22;41083;52.932;6.674;2022-09-01T06:50:30;14.50;94.80
55213;DHT22;41083;52.932;6.674;2022-09-01T06:52:56;14.50;94.80
55213;DHT22;41083;52.932;6.674;2022-09-01T06:55:39;14.60;94.80
55213;DHT22;41083;52.932;6.674;2022-09-01T06:58:07;14.60;94.70
55213;DHT22;41083;52.932;6.674;2022-09-01T07:00:35;14.70;94.70
55213;DHT22;41083;52.932;6.674;2022-09-01T07:03:12;14.80;94.70
55213;DHT22;41083;52.932;6.674;2022-09-01T07:05:40;14.80;94.70
55213;DHT22;41083;52.932;6.674;2022-09-01T07:08:07;14.90;94.70
55213;DHT22;41083;52.932;6.674;2022-09-01T07:10:44;15.00;94.50
55213;DHT22;41083;52.932;6.674;2022-09-01T07:13:16;15.00;94.60
55213;DHT22;41083;52.932;6.674;2022-09-01T07:15:48;15.10;94.60
55213;DHT22;41083;52.932;6.674;2022-09-01T07:18:15;15.20;94.50
55213;DHT22;41083;52.932;6.674;2022-09-01T07:20:42;15.20;94.50
55213;DHT22;41083;52.932;6.674;2022-09-01T07:23:09;15.30;94.50
55213;DHT22;41083;52.932;6.674;2022-09-01T07:25:41;15.30;94.40
55213;DHT22;41083;52.932;6.674;2022-09-01T07:28:09;15.40;94.40
55213;DHT22;41083;52.932;6.674;2022-09-01T07:30:41;15.40;94.40
55213;DHT22;41083;52.932;6.674;2022-09-01T07:33:07;15.50;94.30
55213;DHT22;41083;52.932;6.674;2022-09-01T07:35:37;15.50;94.30
55213;DHT22;41083;52.932;6.674;2022-09-01T07:38:03;15.50;94.20
55213;DHT22;41083;52.932;6.674;2022-09-01T07:40:32;15.60;94.20
55213;DHT22;41083;52.932;6.674;2022-09-01T07:43:01;15.70;94.10
55213;DHT22;41083;52.932;6.674;2022-09-01T07:45:30;15.70;94.10
55213;DHT22;41083;52.932;6.674;2022-09-01T07:47:57;15.80;94.10
55213;DHT22;41083;52.932;6.674;2022-09-01T07:50:27;15.80;94.00
55213;DHT22;41083;52.932;6.674;2022-09-01T07:52:55;15.80;94.00
55213;DHT22;41083;52.932;6.674;2022-09-01T07:55:20;15.90;94.00
55213;DHT22;41083;52.932;6.674;2022-09-01T07:57:46;16.00;93.90
55213;DHT22;41083;52.932;6.674;2022-09-01T08:00:13;16.00;93.90
55213;DHT22;41083;52.932;6.674;2022-09-01T08:02:41;16.00;93.90
55213;DHT22;41083;52.932;6.674;2022-09-01T08:05:10;16.10;93.80
55213;DHT22;41083;52.932;6.674;2022-09-01T08:07:38;16.20;93.70
55213;DHT22;41083;52.932;6.674;2022-09-01T08:10:05;16.20;93.60
55213;DHT22;41083;52.932;6.674;2022-09-01T08:12:32;16.20;93.60
55213;DHT22;41083;52.932;6.674;2022-09-01T08:14:57;16.30;93.50
55213;DHT22;41083;52.932;6.674;2022-09-01T08:17:23;16.40;93.40
55213;DHT22;41083;52.932;6.674;2022-09-01T08:19:49;16.40;93.20
55213;DHT22;41083;52.932;6.674;2022-09-01T08:22:15;16.50;93.20
55213;DHT22;41083;52.932;6.674;2022-09-01T08:24:41;16.60;93.20
55213;DHT22;41083;52.932;6.674;2022-09-01T08:27:07;16.60;93.30
55213;DHT22;41083;52.932;6.674;2022-09-01T08:29:33;16.60;93.10
55213;DHT22;41083;52.932;6.674;2022-09-01T08:31:58;16.70;93.10
55213;DHT22;41083;52.932;6.674;2022-09-01T08:34:25;16.70;93.00
55213;DHT22;41083;52.932;6.674;2022-09-01T08:36:51;16.70;93.10
55213;DHT22;41083;52.932;6.674;2022-09-01T08:39:17;16.80;93.10
55213;DHT22;41083;52.932;6.674;2022-09-01T08:44:45;16.90;92.70
55213;DHT22;41083;52.932;6.674;2022-09-01T08:47:16;17.00;93.20
55213;DHT22;41083;52.932;6.674;2022-09-01T08:49:44;17.00;92.80
55213;DHT22;41083;52.932;6.674;2022-09-01T08:52:30;17.10;92.60
55213;DHT22;41083;52.932;6.674;2022-09-01T08:55:31;17.10;92.50
55213;DHT22;41083;52.932;6.674;2022-09-01T08:57:59;17.10;92.50
55213;DHT22;41083;52.932;6.674;2022-09-01T09:00:36;17.20;92.20
55213;DHT22;41083;52.932;6.674;2022-09-01T09:08:51;17.40;91.40
55213;DHT22;41083;52.932;6.674;2022-09-01T09:11:28;17.50;91.40
55213;DHT22;41083;52.932;6.674;2022-09-01T09:14:02;17.50;91.50
55213;DHT22;41083;52.932;6.674;2022-09-01T09:16:53;17.60;91.20
55213;DHT22;41083;52.932;6.674;2022-09-01T09:19:41;17.70;90.60
55213;DHT22;41083;52.932;6.674;2022-09-01T09:22:11;17.70;91.00
55213;DHT22;41083;52.932;6.674;2022-09-01T09:27:33;17.70;90.70
55213;DHT22;41083;52.932;6.674;2022-09-01T09:30:19;17.80;90.70
55213;DHT22;41083;52.932;6.674;2022-09-01T09:33:00;17.80;90.40
55213;DHT22;41083;52.932;6.674;2022-09-01T09:35:32;17.90;90.10
55213;DHT22;41083;52.932;6.674;2022-09-01T09:41:04;18.10;88.60
55213;DHT22;41083;52.932;6.674;2022-09-01T09:43:36;18.10;87.30
55213;DHT22;41083;52.932;6.674;2022-09-01T09:46:42;18.10;88.30
55213;DHT22;41083;52.932;6.674;2022-09-01T09:49:29;18.20;85.50
55213;DHT22;41083;52.932;6.674;2022-09-01T09:52:11;18.30;88.20
55213;DHT22;41083;52.932;6.674;2022-09-01T09:54:39;18.30;87.20
55213;DHT22;41083;52.932;6.674;2022-09-01T10:00:03;18.40;87.10
55213;DHT22;41083;52.932;6.674;2022-09-01T10:02:37;18.50;85.80
55213;DHT22;41083;52.932;6.674;2022-09-01T10:07:55;18.60;85.50
55213;DHT22;41083;52.932;6.674;2022-09-01T10:10:43;18.60;86.20
55213;DHT22;41083;52.932;6.674;2022-09-01T10:13:21;18.70;85.40
55213;DHT22;41083;52.932;6.674;2022-09-01T10:15:53;18.70;85.20
55213;DHT22;41083;52.932;6.674;2022-09-01T10:18:24;18.70;85.20
55213;DHT22;41083;52.932;6.674;2022-09-01T10:20:56;18.70;84.50
55213;DHT22;41083;52.932;6.674;2022-09-01T10:23:23;18.70;82.80
55213;DHT22;41083;52.932;6.674;2022-09-01T10:25:57;18.90;83.60
55213;DHT22;41083;52.932;6.674;2022-09-01T10:28:25;18.90;81.40
55213;DHT22;41083;52.932;6.674;2022-09-01T10:30:53;19.00;82.10
55213;DHT22;41083;52.932;6.674;2022-09-01T10:33:20;19.00;81.40
55213;DHT22;41083;52.932;6.674;2022-09-01T10:35:50;19.10;79.70
55213;DHT22;41083;52.932;6.674;2022-09-01T10:38:17;19.20;80.10
55213;DHT22;41083;52.932;6.674;2022-09-01T10:40:49;19.20;80.20
55213;DHT22;41083;52.932;6.674;2022-09-01T10:43:43;19.20;78.20
55213;DHT22;41083;52.932;6.674;2022-09-01T10:46:55;19.20;76.40
55213;DHT22;41083;52.932;6.674;2022-09-01T10:48:56;19.30;78.20
55213;DHT22;41083;52.932;6.674;2022-09-01T10:53:52;19.20;78.20
55213;DHT22;41083;52.932;6.674;2022-09-01T10:59:09;19.20;76.90
55213;DHT22;41083;52.932;6.674;2022-09-01T11:04:13;19.40;73.70
55213;DHT22;41083;52.932;6.674;2022-09-01T11:15:03;19.40;71.80
55213;DHT22;41083;52.932;6.674;2022-09-01T11:17:30;19.50;72.70
55213;DHT22;41083;52.932;6.674;2022-09-01T11:19:59;19.50;73.20
55213;DHT22;41083;52.932;6.674;2022-09-01T11:28:07;19.70;71.50
55213;DHT22;41083;52.932;6.674;2022-09-01T11:30:44;19.70;73.50
55213;DHT22;41083;52.932;6.674;2022-09-01T11:36:35;19.60;71.90
55213;DHT22;41083;52.932;6.674;2022-09-01T11:39:13;19.60;72.90
55213;DHT22;41083;52.932;6.674;2022-09-01T11:44:42;19.60;71.60
55213;DHT22;41083;52.932;6.674;2022-09-01T11:47:16;19.70;72.80
55213;DHT22;41083;52.932;6.674;2022-09-01T11:49:59;19.60;72.70
55213;DHT22;41083;52.932;6.674;2022-09-01T11:52:29;19.70;69.30
55213;DHT22;41083;52.932;6.674;2022-09-01T11:54:57;19.70;71.70
55213;DHT22;41083;52.932;6.674;2022-09-01T11:57:29;19.70;72.30
55213;DHT22;41083;52.932;6.674;2022-09-01T11:59:57;19.70;71.70
55213;DHT22;41083;52.932;6.674;2022-09-01T12:02:32;19.80;71.60
55213;DHT22;41083;52.932;6.674;2022-09-01T12:04:59;19.80;70.30
55213;DHT22;41083;52.932;6.674;2022-09-01T12:10:17;19.80;70.80
55213;DHT22;41083;52.932;6.674;2022-09-01T12:12:44;19.80;70.60
55213;DHT22;41083;52.932;6.674;2022-09-01T12:17:43;19.90;71.00
55213;DHT22;41083;52.932;6.674;2022-09-01T12:20:28;19.90;71.70
55213;DHT22;41083;52.932;6.674;2022-09-01T12:22:56;20.00;67.80
55213;DHT22;41083;52.932;6.674;2022-09-01T12:25:28;20.00;70.40
55213;DHT22;41083;52.932;6.674;2022-09-01T12:27:55;20.00;70.10
55213;DHT22;41083;52.932;6.674;2022-09-01T12:30:21;20.00;70.40
55213;DHT22;41083;52.932;6.674;2022-09-01T12:32:48;19.90;70.50
55213;DHT22;41083;52.932;6.674;2022-09-01T12:35:25;20.00;70.00
55213;DHT22;41083;52.932;6.674;2022-09-01T12:37:52;20.00;69.20
55213;DHT22;41083;52.932;6.674;2022-09-01T12:40:37;20.00;70.60
55213;DHT22;41083;52.932;6.674;2022-09-01T12:43:02;20.10;69.00
55213;DHT22;41083;52.932;6.674;2022-09-01T12:45:44;20.20;68.60
55213;DHT22;41083;52.932;6.674;2022-09-01T12:48:28;20.20;66.60
55213;DHT22;41083;52.932;6.674;2022-09-01T12:50:59;20.30;66.90
55213;DHT22;41083;52.932;6.674;2022-09-01T12:53:28;20.30;68.30
55213;DHT22;41083;52.932;6.674;2022-09-01T12:56:18;20.30;68.10
55213;DHT22;41083;52.932;6.674;2022-09-01T12:58:45;20.30;68.20
55213;DHT22;41083;52.932;6.674;2022-09-01T13:01:23;20.40;67.90
55213;DHT22;41083;52.932;6.674;2022-09-01T13:04:26;20.50;63.70
55213;DHT22;41083;52.932;6.674;2022-09-01T13:06:55;20.50;64.10
55213;DHT22;41083;52.932;6.674;2022-09-01T13:09:21;20.50;66.20
55213;DHT22;41083;52.932;6.674;2022-09-01T13:11:47;20.50;66.50
55213;DHT22;41083;52.932;6.674;2022-09-01T13:14:14;20.50;66.70
55213;DHT22;41083;52.932;6.674;2022-09-01T13:16:40;20.60;67.00
55213;DHT22;41083;52.932;6.674;2022-09-01T13:19:06;20.60;66.70
55213;DHT22;41083;52.932;6.674;2022-09-01T13:21:32;20.70;66.40
55213;DHT22;41083;52.932;6.674;2022-09-01T13:24:00;20.70;65.60
55213;DHT22;41083;52.932;6.674;2022-09-01T13:26:25;20.70;65.30
55213;DHT22;41083;52.932;6.674;2022-09-01T13:28:52;20.70;65.20
55213;DHT22;41083;52.932;6.674;2022-09-01T13:31:18;20.70;65.60
55213;DHT22;41083;52.932;6.674;2022-09-01T13:33:43;20.70;65.30
55213;DHT22;41083;52.932;6.674;2022-09-01T13:36:09;20.80;65.30
55213;DHT22;41083;52.932;6.674;2022-09-01T13:38:34;20.80;64.60
55213;DHT22;41083;52.932;6.674;2022-09-01T13:41:00;20.70;64.40
55213;DHT22;41083;52.932;6.674;2022-09-01T13:43:27;20.70;64.50
55213;DHT22;41083;52.932;6.674;2022-09-01T13:45:53;20.70;64.90
55213;DHT22;41083;52.932;6.674;2022-09-01T13:48:20;20.70;64.70
55213;DHT22;41083;52.932;6.674;2022-09-01T13:50:47;20.70;64.50
55213;DHT22;41083;52.932;6.674;2022-09-01T13:53:20;20.70;64.80
55213;DHT22;41083;52.932;6.674;2022-09-01T13:55:47;20.80;64.30
55213;DHT22;41083;52.932;6.674;2022-09-01T13:58:13;20.80;63.80
55213;DHT22;41083;52.932;6.674;2022-09-01T14:00:42;20.80;63.50
55213;DHT22;41083;52.932;6.674;2022-09-01T14:03:17;20.80;63.40
55213;DHT22;41083;52.932;6.674;2022-09-01T14:05:45;20.60;62.00
55213;DHT22;41083;52.932;6.674;2022-09-01T14:08:13;20.60;63.70
55213;DHT22;41083;52.932;6.674;2022-09-01T14:10:42;20.60;63.70
55213;DHT22;41083;52.932;6.674;2022-09-01T14:13:09;20.70;63.70
55213;DHT22;41083;52.932;6.674;2022-09-01T14:15:35;20.80;63.20
55213;DHT22;41083;52.932;6.674;2022-09-01T14:18:02;20.70;62.70
55213;DHT22;41083;52.932;6.674;2022-09-01T14:20:30;20.90;62.50
55213;DHT22;41083;52.932;6.674;2022-09-01T14:22:57;20.90;61.90
55213;DHT22;41083;52.932;6.674;2022-09-01T14:25:24;20.90;62.30
55213;DHT22;41083;52.932;6.674;2022-09-01T14:27:50;20.80;62.20
55213;DHT22;41083;52.932;6.674;2022-09-01T14:30:20;20.80;62.10
55213;DHT22;41083;52.932;6.674;2022-09-01T14:32:47;20.80;62.00
55213;DHT22;41083;52.932;6.674;2022-09-01T14:35:14;20.90;62.00
55213;DHT22;41083;52.932;6.674;2022-09-01T14:37:40;20.90;61.60
55213;DHT22;41083;52.932;6.674;2022-09-01T14:40:07;20.90;61.30
55213;DHT22;41083;52.932;6.674;2022-09-01T14:42:34;20.90;61.20
55213;DHT22;41083;52.932;6.674;2022-09-01T14:45:02;20.90;61.30
55213;DHT22;41083;52.932;6.674;2022-09-01T14:47:29;20.80;61.20
55213;DHT22;41083;52.932;6.674;2022-09-01T14:49:56;20.80;61.00
55213;DHT22;41083;52.932;6.674;2022-09-01T14:52:22;20.80;61.20
55213;DHT22;41083;52.932;6.674;2022-09-01T14:54:48;20.70;60.70
55213;DHT22;41083;52.932;6.674;2022-09-01T14:57:14;20.90;60.20
55213;DHT22;41083;52.932;6.674;2022-09-01T14:59:40;20.90;60.10
55213;DHT22;41083;52.932;6.674;2022-09-01T15:02:07;20.90;59.80
55213;DHT22;41083;52.932;6.674;2022-09-01T15:04:33;20.90;59.50
55213;DHT22;41083;52.932;6.674;2022-09-01T15:06:59;20.90;59.50
55213;DHT22;41083;52.932;6.674;2022-09-01T15:09:24;20.80;59.40
55213;DHT22;41083;52.932;6.674;2022-09-01T15:11:50;20.90;59.20
55213;DHT22;41083;52.932;6.674;2022-09-01T15:14:16;20.90;59.00
55213;DHT22;41083;52.932;6.674;2022-09-01T15:16:42;20.90;59.10
55213;DHT22;41083;52.932;6.674;2022-09-01T15:19:10;21.00;59.20
55213;DHT22;41083;52.932;6.674;2022-09-01T15:21:39;21.00;59.20
55213;DHT22;41083;52.932;6.674;2022-09-01T15:24:06;20.80;58.80
55213;DHT22;41083;52.932;6.674;2022-09-01T15:26:32;20.90;58.70
55213;DHT22;41083;52.932;6.674;2022-09-01T15:28:58;20.90;59.00
55213;DHT22;41083;52.932;6.674;2022-09-01T15:31:25;20.90;58.70
55213;DHT22;41083;52.932;6.674;2022-09-01T15:33:54;20.90;58.50
55213;DHT22;41083;52.932;6.674;2022-09-01T15:36:22;20.90;58.40
55213;DHT22;41083;52.932;6.674;2022-09-01T15:38:48;20.90;58.30
55213;DHT22;41083;52.932;6.674;2022-09-01T15:41:19;20.90;57.90
55213;DHT22;41083;52.932;6.674;2022-09-01T15:43:45;21.00;57.80
55213;DHT22;41083;52.932;6.674;2022-09-01T15:46:10;21.00;57.50
55213;DHT22;41083;52.932;6.674;2022-09-01T15:48:37;21.00;57.10
55213;DHT22;41083;52.932;6.674;2022-09-01T15:53:47;21.00;53.80
55213;DHT22;41083;52.932;6.674;2022-09-01T15:56:13;21.00;56.50
55213;DHT22;41083;52.932;6.674;2022-09-01T15:58:39;21.00;56.50
55213;DHT22;41083;52.932;6.674;2022-09-01T16:01:04;20.90;56.40
55213;DHT22;41083;52.932;6.674;2022-09-01T16:03:30;20.90;56.00
55213;DHT22;41083;52.932;6.674;2022-09-01T16:05:59;20.80;55.90
55213;DHT22;41083;52.932;6.674;2022-09-01T16:08:25;20.70;55.80
55213;DHT22;41083;52.932;6.674;2022-09-01T16:10:50;20.70;55.90
55213;DHT22;41083;52.932;6.674;2022-09-01T16:13:16;20.60;55.80
55213;DHT22;41083;52.932;6.674;2022-09-01T16:18:57;20.60;54.70
55213;DHT22;41083;52.932;6.674;2022-09-01T16:21:46;20.60;53.80
55213;DHT22;41083;52.932;6.674;2022-09-01T16:24:14;20.60;55.10
55213;DHT22;41083;52.932;6.674;2022-09-01T16:26:42;20.60;55.90
55213;DHT22;41083;52.932;6.674;2022-09-01T16:29:12;20.60;55.60
55213;DHT22;41083;52.932;6.674;2022-09-01T16:31:40;20.60;55.40
55213;DHT22;41083;52.932;6.674;2022-09-01T16:34:14;20.60;55.60
55213;DHT22;41083;52.932;6.674;2022-09-01T16:36:51;20.60;55.40
55213;DHT22;41083;52.932;6.674;2022-09-01T16:45:14;20.60;55.30
55213;DHT22;41083;52.932;6.674;2022-09-01T16:50:47;20.60;54.30
55213;DHT22;41083;52.932;6.674;2022-09-01T16:53:35;20.70;55.60
55213;DHT22;41083;52.932;6.674;2022-09-01T16:56:28;20.70;54.70
55213;DHT22;41083;52.932;6.674;2022-09-01T16:59:02;20.70;53.90